Aurora — V7BS9 — position and weather

sailwx.info

Track history (hours):
 
Tides and Currents Weather Stations Pressure Air Temp Water Temp Dewpoint Dewpoint Depression Visibility Wind Speed Wind Dir Waves Ship Positions

Aurora

Last reported at 2017-Oct-07 16:22 UTC. Time now 2017-Oct-19 20:29 UTC.
Position N 11°11' W 074°53'.
Warning: this ship's position is 12 days out of date.

Length 170 m; draft 6.6 m.

Type: Tanker. MMSI: 538001356.

Date/timePositionNaut miles runAvg speedWind from/ knotsBaromVisibWave heightAir tempDewpointWater temp
2017-Oct-07 16:22N 11°11' W 074°53'4 7.8
2017-Oct-07 15:55N 11°07' W 074°53'3 7.2
2017-Oct-07 15:30N 11°05' W 074°51'3 0.2
2017-Oct-06 20:03N 11°02' W 074°49'0 0.0
2017-Oct-06 20:00N 11°02' W 074°49'0 0.0
2017-Oct-06 19:27N 11°02' W 074°49'0 0.0
2017-Oct-06 18:59N 11°02' W 074°49'0 0.1
2017-Oct-06 18:12N 11°02' W 074°49'0 1.2
2017-Oct-06 17:59N 11°03' W 074°49'3 5.3
2017-Oct-06 17:30N 11°05' W 074°51'4 7.9
2017-Oct-06 16:59N 11°08' W 074°52'710.7
2017-Oct-06 16:20N 11°15' W 074°51'  
2017-Sep-30 01:59N 34°43' W 076°42'0 0.0
2017-Sep-30 01:29N 34°43' W 076°42'0 0.0
2017-Sep-30 00:59N 34°43' W 076°42'0 0.0
2017-Sep-30 00:29N 34°43' W 076°42'0 0.0
2017-Sep-29 23:59N 34°43' W 076°42'0 0.0
2017-Sep-29 23:29N 34°43' W 076°42'0 0.0
2017-Sep-29 22:59N 34°43' W 076°42'0 0.0
2017-Sep-29 22:29N 34°43' W 076°42'0 0.0
2017-Sep-29 21:58N 34°43' W 076°42'0 0.0
2017-Sep-29 21:28N 34°43' W 076°42'0 0.0
2017-Sep-29 20:58N 34°43' W 076°42'0 0.1
2017-Sep-29 20:31N 34°43' W 076°42'2 4.7
2017-Sep-29 20:00N 34°41' W 076°40'3 5.4
2017-Sep-29 19:30N 34°38' W 076°40'1 1.5
2017-Sep-29 18:59N 34°38' W 076°39'0 0.1
2017-Sep-29 18:30N 34°38' W 076°39'0 0.0
2017-Sep-29 17:56N 34°38' W 076°39'0 0.0
2017-Sep-29 17:29N 34°38' W 076°39'0 0.0
2017-Sep-29 16:59N 34°38' W 076°39'0 0.0
2017-Sep-29 16:30N 34°38' W 076°39'0 0.0
2017-Sep-29 16:00N 34°38' W 076°39'0 0.0
2017-Sep-29 15:30N 34°38' W 076°39'0 0.0
2017-Sep-29 15:00N 34°38' W 076°39'0 0.0
2017-Sep-29 14:30N 34°38' W 076°39'0 0.0
2017-Sep-29 14:00N 34°38' W 076°39'0 0.0
2017-Sep-29 13:30N 34°38' W 076°39'0 0.0
2017-Sep-29 13:00N 34°38' W 076°39'0 0.0
2017-Sep-29 12:30N 34°38' W 076°39'0 0.0
2017-Sep-29 12:00N 34°38' W 076°39'0 0.0
2017-Sep-29 11:30N 34°38' W 076°39'0 0.0
2017-Sep-29 11:00N 34°38' W 076°39'0 0.0
2017-Sep-29 10:24N 34°38' W 076°39'0 0.0
2017-Sep-29 10:00N 34°38' W 076°39'0 0.0
2017-Sep-29 09:28N 34°38' W 076°39'0 0.0
2017-Sep-29 08:58N 34°38' W 076°39'0 0.0
2017-Sep-29 08:28N 34°38' W 076°39'0 0.0
2017-Sep-29 08:00N 34°38' W 076°39'0 0.0
2017-Sep-29 07:30N 34°38' W 076°39'0 0.0
2017-Sep-29 06:58N 34°38' W 076°39'0 0.0
2017-Sep-29 06:28N 34°38' W 076°39'0 0.0
2017-Sep-29 05:58N 34°38' W 076°39'0 0.1
2017-Sep-29 05:30N 34°38' W 076°39'0 0.2
2017-Sep-29 04:59N 34°38' W 076°39'0 0.3
2017-Sep-29 04:29N 34°38' W 076°39'0 0.0
2017-Sep-29 01:40N 34°38' W 076°39'0 0.0
2017-Sep-28 23:06N 34°38' W 076°39'0 0.0
2017-Sep-28 23:00N 34°38' W 076°39'0 0.0
2017-Sep-28 22:27N 34°38' W 076°39'0 0.0
2017-Sep-28 21:58N 34°38' W 076°39'0 0.0
2017-Sep-28 21:30N 34°38' W 076°39'0 0.0
2017-Sep-28 21:00N 34°38' W 076°39'0 0.0
2017-Sep-28 20:27N 34°38' W 076°39'0 0.0
2017-Sep-28 19:56N 34°38' W 076°39'0 0.0
2017-Sep-28 19:26N 34°38' W 076°39'0 0.0
2017-Sep-28 18:59N 34°38' W 076°39'0 0.0
2017-Sep-28 18:02N 34°38' W 076°39'0 0.2
2017-Sep-28 17:59N 34°38' W 076°39'0 0.0
2017-Sep-28 17:28N 34°38' W 076°39'0 0.0
2017-Sep-28 16:58N 34°38' W 076°39'0 0.0
2017-Sep-28 15:50N 34°38' W 076°39'0 0.0
2017-Sep-28 15:29N 34°38' W 076°39'0 0.0
2017-Sep-28 12:23N 34°38' W 076°39'0 0.0
2017-Sep-28 11:59N 34°38' W 076°39'0 0.0
2017-Sep-28 11:25N 34°38' W 076°39'0 0.0
2017-Sep-28 10:59N 34°38' W 076°39'0 0.0
2017-Sep-28 10:28N 34°38' W 076°39'0 0.0
2017-Sep-28 09:58N 34°38' W 076°39'0 0.0
2017-Sep-28 09:28N 34°38' W 076°39'0 0.0
2017-Sep-28 08:58N 34°38' W 076°39'0 0.0
2017-Sep-28 08:28N 34°38' W 076°39'0 0.0
2017-Sep-28 07:58N 34°38' W 076°39'0 0.0
2017-Sep-28 07:28N 34°38' W 076°39'0 0.0
2017-Sep-28 06:58N 34°38' W 076°39'0 0.0
2017-Sep-28 06:28N 34°38' W 076°39'0 0.0
2017-Sep-28 05:58N 34°38' W 076°39'0 0.0
2017-Sep-28 05:28N 34°38' W 076°39'0 0.0
2017-Sep-28 04:58N 34°38' W 076°39'0 0.0
2017-Sep-28 04:28N 34°38' W 076°39'0 0.0
2017-Sep-28 03:58N 34°38' W 076°39'0 0.0
2017-Sep-28 03:28N 34°38' W 076°39'0 0.0
2017-Sep-28 02:58N 34°38' W 076°39'0 0.0
2017-Sep-28 02:28N 34°38' W 076°39'0 0.0
2017-Sep-28 01:58N 34°38' W 076°39'0 0.1
2017-Sep-28 01:28N 34°38' W 076°39'0 0.1
2017-Sep-28 00:58N 34°38' W 076°39'0 0.0
2017-Sep-28 00:28N 34°38' W 076°39'0 0.0
2017-Sep-27 23:58N 34°38' W 076°39'0 0.0
2017-Sep-27 23:28N 34°38' W 076°39'0 0.0
2017-Sep-27 22:58N 34°38' W 076°39'0 0.0
2017-Sep-27 22:28N 34°38' W 076°39'0 0.2
2017-Sep-27 22:01N 34°38' W 076°39'2 3.8
2017-Sep-27 21:30N 34°36' W 076°39'2 4.4
2017-Sep-27 21:00N 34°34' W 076°40'  
Track history (hours):
 
Tides and Currents Weather Stations Pressure Air Temp Water Temp Dewpoint Dewpoint Depression Visibility Wind Speed Wind Dir Waves Ship Positions

Aurora

Last reported at 2017-Oct-07 16:22 UTC. Time now 2017-Oct-19 20:29 UTC.
Position N 11°11' W 074°53'.
Warning: this ship's position is 12 days out of date.

Length 170 m; draft 6.6 m.

Type: Tanker. MMSI: 538001356.

Date/timePositionNaut miles runAvg speedWind from/ knotsBaromVisibWave heightAir tempDewpointWater temp
2017-Oct-07 16:22N 11°11' W 074°53'4 7.8
2017-Oct-07 15:55N 11°07' W 074°53'3 7.2
2017-Oct-07 15:30N 11°05' W 074°51'3 0.2
2017-Oct-06 20:03N 11°02' W 074°49'0 0.0
2017-Oct-06 20:00N 11°02' W 074°49'0 0.0
2017-Oct-06 19:27N 11°02' W 074°49'0 0.0
2017-Oct-06 18:59N 11°02' W 074°49'0 0.1
2017-Oct-06 18:12N 11°02' W 074°49'0 1.2
2017-Oct-06 17:59N 11°03' W 074°49'3 5.3
2017-Oct-06 17:30N 11°05' W 074°51'4 7.9
2017-Oct-06 16:59N 11°08' W 074°52'710.7
2017-Oct-06 16:20N 11°15' W 074°51'  
2017-Sep-30 01:59N 34°43' W 076°42'0 0.0
2017-Sep-30 01:29N 34°43' W 076°42'0 0.0
2017-Sep-30 00:59N 34°43' W 076°42'0 0.0
2017-Sep-30 00:29N 34°43' W 076°42'0 0.0
2017-Sep-29 23:59N 34°43' W 076°42'0 0.0
2017-Sep-29 23:29N 34°43' W 076°42'0 0.0
2017-Sep-29 22:59N 34°43' W 076°42'0 0.0
2017-Sep-29 22:29N 34°43' W 076°42'0 0.0
2017-Sep-29 21:58N 34°43' W 076°42'0 0.0
2017-Sep-29 21:28N 34°43' W 076°42'0 0.0
2017-Sep-29 20:58N 34°43' W 076°42'0 0.1
2017-Sep-29 20:31N 34°43' W 076°42'2 4.7
2017-Sep-29 20:00N 34°41' W 076°40'3 5.4
2017-Sep-29 19:30N 34°38' W 076°40'1 1.5
2017-Sep-29 18:59N 34°38' W 076°39'0 0.1
2017-Sep-29 18:30N 34°38' W 076°39'0 0.0
2017-Sep-29 17:56N 34°38' W 076°39'0 0.0
2017-Sep-29 17:29N 34°38' W 076°39'0 0.0
2017-Sep-29 16:59N 34°38' W 076°39'0 0.0
2017-Sep-29 16:30N 34°38' W 076°39'0 0.0
2017-Sep-29 16:00N 34°38' W 076°39'0 0.0
2017-Sep-29 15:30N 34°38' W 076°39'0 0.0
2017-Sep-29 15:00N 34°38' W 076°39'0 0.0
2017-Sep-29 14:30N 34°38' W 076°39'0 0.0
2017-Sep-29 14:00N 34°38' W 076°39'0 0.0
2017-Sep-29 13:30N 34°38' W 076°39'0 0.0
2017-Sep-29 13:00N 34°38' W 076°39'0 0.0
2017-Sep-29 12:30N 34°38' W 076°39'0 0.0
2017-Sep-29 12:00N 34°38' W 076°39'0 0.0
2017-Sep-29 11:30N 34°38' W 076°39'0 0.0
2017-Sep-29 11:00N 34°38' W 076°39'0 0.0
2017-Sep-29 10:24N 34°38' W 076°39'0 0.0
2017-Sep-29 10:00N 34°38' W 076°39'0 0.0
2017-Sep-29 09:28N 34°38' W 076°39'0 0.0
2017-Sep-29 08:58N 34°38' W 076°39'0 0.0
2017-Sep-29 08:28N 34°38' W 076°39'0 0.0
2017-Sep-29 08:00N 34°38' W 076°39'0 0.0
2017-Sep-29 07:30N 34°38' W 076°39'0 0.0
2017-Sep-29 06:58N 34°38' W 076°39'0 0.0
2017-Sep-29 06:28N 34°38' W 076°39'0 0.0
2017-Sep-29 05:58N 34°38' W 076°39'0 0.1
2017-Sep-29 05:30N 34°38' W 076°39'0 0.2
2017-Sep-29 04:59N 34°38' W 076°39'0 0.3
2017-Sep-29 04:29N 34°38' W 076°39'0 0.0
2017-Sep-29 01:40N 34°38' W 076°39'0 0.0
2017-Sep-28 23:06N 34°38' W 076°39'0 0.0
2017-Sep-28 23:00N 34°38' W 076°39'0 0.0
2017-Sep-28 22:27N 34°38' W 076°39'0 0.0
2017-Sep-28 21:58N 34°38' W 076°39'0 0.0
2017-Sep-28 21:30N 34°38' W 076°39'0 0.0
2017-Sep-28 21:00N 34°38' W 076°39'0 0.0
2017-Sep-28 20:27N 34°38' W 076°39'0 0.0
2017-Sep-28 19:56N 34°38' W 076°39'0 0.0
2017-Sep-28 19:26N 34°38' W 076°39'0 0.0
2017-Sep-28 18:59N 34°38' W 076°39'0 0.0
2017-Sep-28 18:02N 34°38' W 076°39'0 0.2
2017-Sep-28 17:59N 34°38' W 076°39'0 0.0
2017-Sep-28 17:28N 34°38' W 076°39'0 0.0
2017-Sep-28 16:58N 34°38' W 076°39'0 0.0
2017-Sep-28 15:50N 34°38' W 076°39'0 0.0
2017-Sep-28 15:29N 34°38' W 076°39'0 0.0
2017-Sep-28 12:23N 34°38' W 076°39'0 0.0
2017-Sep-28 11:59N 34°38' W 076°39'0 0.0
2017-Sep-28 11:25N 34°38' W 076°39'0 0.0
2017-Sep-28 10:59N 34°38' W 076°39'0 0.0
2017-Sep-28 10:28N 34°38' W 076°39'0 0.0
2017-Sep-28 09:58N 34°38' W 076°39'0 0.0
2017-Sep-28 09:28N 34°38' W 076°39'0 0.0
2017-Sep-28 08:58N 34°38' W 076°39'0 0.0
2017-Sep-28 08:28N 34°38' W 076°39'0 0.0
2017-Sep-28 07:58N 34°38' W 076°39'0 0.0
2017-Sep-28 07:28N 34°38' W 076°39'0 0.0
2017-Sep-28 06:58N 34°38' W 076°39'0 0.0
2017-Sep-28 06:28N 34°38' W 076°39'0 0.0
2017-Sep-28 05:58N 34°38' W 076°39'0 0.0
2017-Sep-28 05:28N 34°38' W 076°39'0 0.0
2017-Sep-28 04:58N 34°38' W 076°39'0 0.0
2017-Sep-28 04:28N 34°38' W 076°39'0 0.0
2017-Sep-28 03:58N 34°38' W 076°39'0 0.0
2017-Sep-28 03:28N 34°38' W 076°39'0 0.0
2017-Sep-28 02:58N 34°38' W 076°39'0 0.0
2017-Sep-28 02:28N 34°38' W 076°39'0 0.0
2017-Sep-28 01:58N 34°38' W 076°39'0 0.1
2017-Sep-28 01:28N 34°38' W 076°39'0 0.1
2017-Sep-28 00:58N 34°38' W 076°39'0 0.0
2017-Sep-28 00:28N 34°38' W 076°39'0 0.0
2017-Sep-27 23:58N 34°38' W 076°39'0 0.0
2017-Sep-27 23:28N 34°38' W 076°39'0 0.0
2017-Sep-27 22:58N 34°38' W 076°39'0 0.0
2017-Sep-27 22:28N 34°38' W 076°39'0 0.2
2017-Sep-27 22:01N 34°38' W 076°39'2 3.8
2017-Sep-27 21:30N 34°36' W 076°39'2 4.4
2017-Sep-27 21:00N 34°34' W 076°40'  

Dump ship's entire track history